Time;durP1;ratioP1;P1;durP2;ratioP2;P2;SDS_P1;SDS_P2;PMS_P1;PMS_P2;Temp;Humidity;BMP_temperature;BMP_pressure;BME280_temperature;BME280_humidity;BME280_pressure;Samples;Min_cycle;Max_cycle;Signal;HPM_P1;HPM_P2
2021/08/17 00:00:58;;;;;;;34.57;13.43;;;15.50;99.90;;;;;;5020451;28;20544;-77
2021/08/17 00:03:24;;;;;;;8.90;3.67;;;15.40;99.90;;;;;;5030040;28;20531;-77
2021/08/17 00:05:52;;;;;;;9.10;4.20;;;15.40;99.90;;;;;;5013219;28;20496;-76
2021/08/17 00:08:20;;;;;;;20.27;7.90;;;15.40;99.90;;;;;;5013619;28;20984;-76
2021/08/17 00:10:46;;;;;;;7.80;3.63;;;15.40;99.90;;;;;;5013795;28;20549;-76
2021/08/17 00:13:13;;;;;;;13.07;5.77;;;15.30;99.90;;;;;;5013758;28;20554;-76
2021/08/17 00:15:39;;;;;;;6.00;2.53;;;15.30;99.90;;;;;;5025515;28;20534;-76
2021/08/17 00:18:06;;;;;;;11.67;4.90;;;15.40;99.90;;;;;;5033313;28;20510;-76
2021/08/17 00:20:33;;;;;;;8.70;4.40;;;15.40;99.90;;;;;;5033219;28;20849;-76
2021/08/17 00:22:59;;;;;;;9.60;3.90;;;15.50;99.90;;;;;;5033087;28;20564;-76
2021/08/17 00:25:27;;;;;;;15.53;4.00;;;15.50;99.90;;;;;;5033352;28;20538;-76
2021/08/17 00:27:53;;;;;;;7.33;3.00;;;15.50;99.90;;;;;;5033408;28;20548;-79
2021/08/17 00:30:20;;;;;;;6.90;3.40;;;15.50;99.90;;;;;;5033227;28;20536;-78
2021/08/17 00:32:46;;;;;;;8.20;4.40;;;15.50;99.90;;;;;;5033043;28;20565;-78
2021/08/17 00:35:13;;;;;;;5.80;2.87;;;15.60;99.90;;;;;;5033080;28;20545;-78
2021/08/17 00:37:39;;;;;;;6.73;3.53;;;15.50;99.90;;;;;;5032916;28;20887;-78
2021/08/17 00:40:07;;;;;;;7.60;3.20;;;15.50;99.90;;;;;;5033181;28;20491;-78
2021/08/17 00:42:39;;;;;;;4.10;2.57;;;15.50;99.90;;;;;;5033118;28;20535;-78
2021/08/17 00:45:06;;;;;;;6.50;3.20;;;15.60;99.90;;;;;;5032997;28;20477;-78
2021/08/17 00:47:33;;;;;;;8.07;3.10;;;15.60;99.90;;;;;;5032895;28;20540;-78
2021/08/17 00:49:59;;;;;;;11.10;4.43;;;15.60;99.90;;;;;;5032663;28;20453;-78
2021/08/17 00:52:26;;;;;;;6.67;3.90;;;15.60;99.90;;;;;;5032544;28;20552;-78
2021/08/17 00:54:53;;;;;;;4.83;2.70;;;15.70;99.90;;;;;;5032455;28;20503;-78
2021/08/17 00:57:19;;;;;;;8.00;3.00;;;15.70;99.90;;;;;;5032670;28;20965;-79
2021/08/17 00:59:47;;;;;;;7.30;3.60;;;15.60;99.90;;;;;;5032839;28;20488;-79
2021/08/17 01:02:14;;;;;;;5.97;2.80;;;15.60;99.90;;;;;;5032739;28;20511;-79
2021/08/17 01:04:41;;;;;;;6.10;3.10;;;15.60;99.90;;;;;;5032575;28;20881;-79
2021/08/17 01:07:08;;;;;;;5.93;2.70;;;15.60;99.90;;;;;;5031544;28;21006;-79
2021/08/17 01:09:35;;;;;;;7.60;3.13;;;15.60;99.90;;;;;;5032845;28;20893;-79
2021/08/17 01:12:02;;;;;;;9.83;3.70;;;15.60;99.90;;;;;;5032625;28;20539;-79
2021/08/17 01:14:29;;;;;;;3.30;2.70;;;15.60;99.90;;;;;;5032698;28;20804;-78
2021/08/17 01:16:58;;;;;;;3.67;2.70;;;15.60;99.90;;;;;;5032637;28;20887;-78
2021/08/17 01:19:24;;;;;;;4.90;2.77;;;15.60;99.90;;;;;;5032794;28;20868;-78
2021/08/17 01:21:51;;;;;;;3.90;2.77;;;15.70;99.90;;;;;;5032687;28;20548;-78
2021/08/17 01:24:18;;;;;;;6.80;2.23;;;15.70;99.90;;;;;;5032542;28;20961;-78
2021/08/17 01:26:46;;;;;;;5.77;3.07;;;15.70;99.90;;;;;;5032681;28;20523;-78
2021/08/17 01:29:15;;;;;;;8.70;3.43;;;15.70;99.90;;;;;;5032548;28;20540;-78
2021/08/17 01:31:42;;;;;;;4.77;2.60;;;15.80;99.90;;;;;;5032421;28;20449;-79
2021/08/17 01:34:08;;;;;;;4.73;2.83;;;15.80;99.90;;;;;;5032609;28;20460;-79
2021/08/17 01:36:35;;;;;;;9.77;3.70;;;15.80;99.90;;;;;;5032554;28;20540;-78
2021/08/17 01:39:02;;;;;;;9.80;2.83;;;15.80;99.90;;;;;;5032560;28;20476;-78
2021/08/17 01:41:29;;;;;;;4.13;2.60;;;15.90;99.90;;;;;;5032446;28;20457;-78
2021/08/17 01:43:57;;;;;;;5.63;2.43;;;15.90;99.90;;;;;;5032389;28;20454;-78
2021/08/17 01:46:24;;;;;;;3.23;2.87;;;15.90;99.90;;;;;;5032260;28;20587;-78
2021/08/17 01:48:50;;;;;;;4.53;2.80;;;15.90;99.90;;;;;;5032326;28;20496;-78
2021/08/17 01:51:17;;;;;;;5.17;2.93;;;15.90;99.90;;;;;;5032484;28;20544;-78
2021/08/17 01:53:44;;;;;;;5.20;2.83;;;15.80;99.90;;;;;;5032381;28;20484;-78
2021/08/17 01:56:12;;;;;;;6.90;3.20;;;15.70;99.90;;;;;;5032543;28;20488;-78
2021/08/17 01:58:39;;;;;;;5.47;3.30;;;15.70;99.90;;;;;;5032430;28;20540;-78
2021/08/17 02:01:08;;;;;;;6.33;2.80;;;15.50;99.90;;;;;;5032286;28;20484;-78
2021/08/17 02:03:35;;;;;;;7.67;3.63;;;15.50;99.90;;;;;;5032418;28;20940;-78
2021/08/17 02:06:02;;;;;;;3.83;3.00;;;15.50;99.90;;;;;;5035214;28;20576;-78
2021/08/17 02:08:29;;;;;;;3.83;2.53;;;15.50;99.90;;;;;;5035826;28;20548;-78
2021/08/17 02:10:55;;;;;;;5.77;3.17;;;15.40;99.90;;;;;;5035613;28;21044;-78
2021/08/17 02:13:23;;;;;;;5.30;3.63;;;15.30;99.90;;;;;;5035605;28;20485;-78
2021/08/17 02:15:51;;;;;;;6.17;2.77;;;15.30;99.90;;;;;;5035690;28;20881;-77
2021/08/17 02:18:19;;;;;;;6.87;2.83;;;15.20;99.90;;;;;;5035678;28;20481;-77
2021/08/17 02:20:46;;;;;;;5.07;2.70;;;15.20;99.90;;;;;;5035617;28;20540;-77
2021/08/17 02:23:13;;;;;;;6.63;2.57;;;15.10;99.90;;;;;;5035416;28;20532;-78
2021/08/17 02:25:39;;;;;;;6.70;3.10;;;15.10;99.90;;;;;;5035299;28;20572;-77
2021/08/17 02:28:06;;;;;;;4.00;2.40;;;15.10;99.90;;;;;;5035241;28;20548;-77
2021/08/17 02:30:32;;;;;;;7.83;2.50;;;15.10;99.90;;;;;;5035508;28;20541;-79
2021/08/17 02:32:59;;;;;;;3.10;2.53;;;15.10;99.90;;;;;;5035446;28;20481;-79
2021/08/17 02:35:27;;;;;;;2.90;2.20;;;15.20;99.90;;;;;;5035432;28;20885;-79
2021/08/17 02:37:53;;;;;;;4.37;2.03;;;15.20;99.90;;;;;;5035100;28;21015;-78
2021/08/17 02:40:20;;;;;;;2.43;1.87;;;15.10;99.90;;;;;;5035090;28;20536;-78
2021/08/17 02:42:46;;;;;;;3.00;2.50;;;15.10;99.90;;;;;;5035269;28;20537;-78
2021/08/17 02:45:13;;;;;;;8.77;3.03;;;15.10;99.90;;;;;;5035135;28;20544;-79
2021/08/17 02:47:39;;;;;;;2.10;2.00;;;15.20;99.90;;;;;;5035132;28;20499;-78
2021/08/17 02:50:07;;;;;;;4.90;2.67;;;15.10;99.90;;;;;;5034957;28;20540;-78
2021/08/17 02:52:36;;;;;;;6.37;2.27;;;15.10;99.90;;;;;;5034906;28;20457;-78
2021/08/17 02:55:03;;;;;;;5.30;2.97;;;15.10;99.90;;;;;;5034866;28;20488;-78
2021/08/17 02:57:29;;;;;;;3.23;2.63;;;15.10;99.90;;;;;;5034967;28;20915;-78
2021/08/17 02:59:56;;;;;;;7.00;2.57;;;15.10;99.90;;;;;;5035050;28;20544;-78
2021/08/17 03:02:22;;;;;;;7.80;2.53;;;15.10;99.90;;;;;;5034934;28;20536;-78
2021/08/17 03:04:49;;;;;;;2.67;2.10;;;15.10;99.90;;;;;;5034758;28;20480;-78
2021/08/17 03:07:15;;;;;;;6.67;2.63;;;15.00;99.90;;;;;;5034841;28;20697;-78
2021/08/17 03:09:43;;;;;;;5.10;2.30;;;15.00;99.90;;;;;;5034592;28;20485;-78
2021/08/17 03:12:10;;;;;;;3.40;2.60;;;15.00;99.90;;;;;;5034578;28;20544;-78
2021/08/17 03:14:36;;;;;;;3.73;2.40;;;15.00;99.90;;;;;;5031368;28;20478;-78
2021/08/17 03:17:03;;;;;;;4.00;2.40;;;15.10;99.90;;;;;;5013912;28;20456;-77
2021/08/17 03:19:29;;;;;;;2.53;2.33;;;15.20;99.90;;;;;;5014776;28;20860;-77
2021/08/17 03:21:56;;;;;;;5.00;2.27;;;15.20;99.90;;;;;;5014867;28;20554;-77
2021/08/17 03:24:23;;;;;;;4.27;2.40;;;15.30;99.90;;;;;;5014547;28;20972;-78
2021/08/17 03:26:50;;;;;;;5.70;1.87;;;15.40;99.90;;;;;;5014505;28;20518;-78
2021/08/17 03:29:19;;;;;;;6.50;2.23;;;15.40;99.90;;;;;;5014725;28;20873;-78
2021/08/17 03:31:45;;;;;;;4.63;2.57;;;15.30;99.90;;;;;;5014723;28;20481;-78
2021/08/17 03:34:12;;;;;;;4.40;2.47;;;15.20;99.90;;;;;;5014503;28;20969;-78
2021/08/17 03:36:38;;;;;;;7.63;2.73;;;15.20;99.90;;;;;;5014410;28;20545;-78
2021/08/17 03:39:05;;;;;;;3.83;2.73;;;15.20;99.90;;;;;;5014277;28;20534;-78
2021/08/17 03:41:32;;;;;;;6.70;2.77;;;15.30;99.90;;;;;;5014273;28;20497;-77
2021/08/17 03:43:59;;;;;;;5.70;2.83;;;15.40;99.90;;;;;;5014288;28;21023;-78
2021/08/17 03:46:27;;;;;;;3.80;2.60;;;15.40;99.90;;;;;;5014230;28;20576;-78
2021/08/17 03:48:54;;;;;;;3.13;2.60;;;15.50;99.90;;;;;;5014100;28;20508;-78
2021/08/17 03:51:20;;;;;;;4.23;2.50;;;15.60;99.90;;;;;;5014027;28;20513;-78
2021/08/17 03:53:47;;;;;;;2.80;2.20;;;15.60;99.90;;;;;;5014125;28;20540;-78
2021/08/17 03:56:13;;;;;;;5.67;2.50;;;15.60;99.90;;;;;;5014109;28;21012;-78
2021/08/17 03:58:40;;;;;;;2.60;2.40;;;15.70;99.90;;;;;;5014014;28;20576;-78
2021/08/17 04:01:08;;;;;;;5.13;2.90;;;15.70;99.90;;;;;;5013877;28;20486;-78
2021/08/17 04:03:34;;;;;;;4.37;2.30;;;15.80;99.90;;;;;;5013915;28;21028;-78
2021/08/17 04:06:01;;;;;;;3.43;2.40;;;15.90;99.90;;;;;;5013508;28;20557;-78
2021/08/17 04:08:27;;;;;;;5.37;2.37;;;15.90;99.90;;;;;;5013732;28;20541;-78
2021/08/17 04:10:54;;;;;;;6.07;2.90;;;15.90;99.90;;;;;;5013870;28;20454;-78
2021/08/17 04:13:21;;;;;;;3.70;2.50;;;16.00;99.90;;;;;;5013684;28;20517;-79
2021/08/17 04:15:47;;;;;;;5.53;2.17;;;16.00;99.90;;;;;;5026569;28;20893;-78
2021/08/17 04:18:15;;;;;;;3.13;1.80;;;16.00;99.90;;;;;;5033274;28;20560;-78
2021/08/17 04:20:42;;;;;;;4.63;2.40;;;16.00;99.90;;;;;;5033539;28;20450;-78
2021/08/17 04:23:08;;;;;;;2.83;2.10;;;16.10;99.90;;;;;;5033336;28;21002;-78
2021/08/17 04:25:35;;;;;;;6.57;2.60;;;16.10;99.90;;;;;;5033308;28;20535;-78
2021/08/17 04:28:01;;;;;;;4.20;1.97;;;16.10;99.90;;;;;;5032885;28;20568;-79
2021/08/17 04:30:28;;;;;;;2.67;2.27;;;16.10;99.90;;;;;;5033215;28;20894;-79
2021/08/17 04:32:54;;;;;;;5.87;2.33;;;16.20;99.90;;;;;;5033011;28;20485;-79
2021/08/17 04:35:22;;;;;;;2.43;2.00;;;16.20;99.90;;;;;;5032948;28;20532;-79
2021/08/17 04:37:49;;;;;;;11.57;2.77;;;16.30;99.90;;;;;;5032902;28;20940;-79
2021/08/17 04:40:16;;;;;;;4.90;2.70;;;16.30;99.90;;;;;;5033020;28;20461;-79
2021/08/17 04:42:42;;;;;;;3.87;2.20;;;16.30;99.90;;;;;;5033067;28;20545;-79
2021/08/17 04:45:10;;;;;;;2.90;2.60;;;16.40;99.90;;;;;;5033089;28;20540;-79
2021/08/17 04:47:44;;;;;;;5.23;2.03;;;16.40;99.90;;;;;;5032874;28;20886;-79
2021/08/17 04:50:11;;;;;;;3.87;2.50;;;16.50;99.90;;;;;;5033011;28;21003;-79
2021/08/17 04:52:39;;;;;;;4.03;2.50;;;16.50;99.90;;;;;;5032944;28;20454;-78
2021/08/17 04:55:06;;;;;;;5.67;2.47;;;16.50;99.90;;;;;;5032881;28;20782;-78
2021/08/17 04:57:32;;;;;;;4.27;2.17;;;16.50;99.90;;;;;;5032933;28;21007;-78
2021/08/17 04:59:59;;;;;;;3.60;1.90;;;16.50;99.90;;;;;;5032702;28;20955;-79
2021/08/17 05:02:25;;;;;;;4.70;2.70;;;16.50;99.90;;;;;;5033097;28;20536;-79
2021/08/17 05:04:52;;;;;;;3.33;1.70;;;16.60;99.90;;;;;;5032855;28;20500;-79
2021/08/17 05:07:18;;;;;;;5.43;2.03;;;16.60;99.90;;;;;;5032604;28;20583;-79
2021/08/17 05:09:46;;;;;;;3.23;2.37;;;16.70;99.90;;;;;;5032771;28;20583;-79
2021/08/17 05:12:12;;;;;;;5.40;2.17;;;16.80;99.90;;;;;;5032757;28;20536;-79
2021/08/17 05:14:39;;;;;;;5.70;2.00;;;16.80;99.90;;;;;;5028968;28;20540;-79
2021/08/17 05:17:06;;;;;;;8.70;2.20;;;16.80;99.90;;;;;;5013198;28;20537;-79
2021/08/17 05:19:32;;;;;;;5.43;2.97;;;16.80;99.90;;;;;;5013056;28;20484;-79
2021/08/17 05:21:59;;;;;;;7.20;2.40;;;16.70;99.90;;;;;;5013170;28;20540;-79
2021/08/17 05:24:25;;;;;;;2.47;2.13;;;16.80;99.90;;;;;;5013017;28;20504;-79
2021/08/17 05:26:53;;;;;;;8.90;2.93;;;16.90;99.90;;;;;;5012850;28;20564;-79
2021/08/17 05:29:20;;;;;;;8.13;2.50;;;16.90;99.90;;;;;;5012767;28;20454;-79
2021/08/17 05:31:46;;;;;;;4.33;2.20;;;16.90;99.90;;;;;;5013169;28;20544;-79
2021/08/17 05:34:13;;;;;;;6.43;2.30;;;17.00;99.90;;;;;;5012850;28;20538;-79
2021/08/17 05:36:39;;;;;;;7.33;2.83;;;17.00;99.90;;;;;;5012947;28;20631;-78
2021/08/17 05:39:06;;;;;;;4.43;2.47;;;17.00;99.90;;;;;;5013152;28;20509;-78
2021/08/17 05:41:32;;;;;;;4.20;2.67;;;17.10;99.90;;;;;;5016617;28;20937;-79
2021/08/17 05:44:00;;;;;;;4.17;2.20;;;17.00;99.90;;;;;;5016348;28;20477;-79
2021/08/17 05:46:27;;;;;;;7.10;2.80;;;17.00;99.90;;;;;;5016538;28;20612;-79
2021/08/17 05:48:53;;;;;;;5.37;2.43;;;17.00;99.90;;;;;;5016421;28;20482;-79
2021/08/17 05:51:20;;;;;;;7.33;2.63;;;16.90;99.90;;;;;;5016505;28;20454;-79
2021/08/17 05:53:46;;;;;;;6.07;2.23;;;16.90;99.90;;;;;;5016361;28;20851;-79
2021/08/17 05:56:13;;;;;;;11.43;3.77;;;16.80;99.90;;;;;;5016494;28;20454;-79
2021/08/17 05:58:39;;;;;;;8.43;2.97;;;16.90;99.90;;;;;;5016472;28;20482;-79
2021/08/17 06:01:07;;;;;;;4.50;3.13;;;16.70;99.90;;;;;;5016295;28;20458;-79
2021/08/17 06:03:34;;;;;;;4.73;2.83;;;16.60;99.90;;;;;;5016238;28;20457;-79
2021/08/17 06:06:00;;;;;;;8.43;3.53;;;16.40;99.90;;;;;;5015899;28;20881;-78
2021/08/17 06:08:28;;;;;;;5.50;2.60;;;16.30;99.90;;;;;;5016118;28;20569;-78
2021/08/17 06:10:54;;;;;;;4.10;2.83;;;16.30;99.90;;;;;;5015940;28;20525;-78
2021/08/17 06:13:23;;;;;;;12.53;3.53;;;16.30;99.90;;;;;;5016174;28;20874;-78
2021/08/17 06:15:50;;;;;;;7.80;3.63;;;16.40;99.90;;;;;;5029261;28;20528;-78
2021/08/17 06:18:18;;;;;;;8.00;2.93;;;16.40;99.90;;;;;;5035597;28;20484;-78
2021/08/17 06:20:44;;;;;;;3.83;2.77;;;16.50;99.90;;;;;;5035709;28;20536;-78
2021/08/17 06:23:11;;;;;;;9.97;3.67;;;16.50;99.90;;;;;;5035712;28;20540;-79
2021/08/17 06:25:38;;;;;;;9.30;3.30;;;16.50;99.90;;;;;;5035510;28;20892;-78
2021/08/17 06:28:08;;;;;;;7.10;3.50;;;16.50;99.90;;;;;;5035330;28;20999;-78
2021/08/17 06:30:34;;;;;;;5.47;3.43;;;16.50;99.90;;;;;;5035731;28;20464;-78
2021/08/17 06:33:01;;;;;;;8.07;3.50;;;16.50;99.90;;;;;;5035774;28;20552;-78
2021/08/17 06:35:29;;;;;;;5.57;3.47;;;16.40;99.90;;;;;;5035610;28;20455;-78
2021/08/17 06:37:56;;;;;;;7.00;3.60;;;16.40;99.90;;;;;;5035309;28;20449;-78
2021/08/17 06:40:23;;;;;;;11.93;3.93;;;16.30;99.90;;;;;;5035427;28;20477;-78
2021/08/17 06:42:50;;;;;;;9.70;3.87;;;16.30;99.90;;;;;;5035200;28;20488;-78
2021/08/17 06:45:17;;;;;;;9.13;3.27;;;16.30;99.90;;;;;;5035190;28;20468;-78
2021/08/17 06:47:47;;;;;;;4.23;3.60;;;16.20;99.90;;;;;;5035076;28;20542;-78
2021/08/17 06:50:14;;;;;;;8.27;4.20;;;16.20;99.90;;;;;;5034929;28;20875;-78
2021/08/17 06:52:43;;;;;;;5.57;3.50;;;16.30;99.90;;;;;;5035088;28;20487;-78
2021/08/17 06:55:11;;;;;;;10.03;3.73;;;16.50;99.90;;;;;;5035253;28;20460;-79
2021/08/17 06:57:37;;;;;;;7.63;3.80;;;16.60;99.90;;;;;;5035098;28;20492;-79
2021/08/17 07:00:06;;;;;;;7.90;3.50;;;16.70;99.90;;;;;;5035036;28;20539;-79
2021/08/17 07:02:32;;;;;;;6.47;3.67;;;16.80;99.90;;;;;;5035159;28;20536;-78
2021/08/17 07:04:59;;;;;;;5.13;3.50;;;16.90;99.90;;;;;;5034605;28;20537;-78
2021/08/17 07:07:25;;;;;;;6.43;3.90;;;16.90;99.90;;;;;;5034987;28;20575;-78
2021/08/17 07:09:53;;;;;;;7.83;3.37;;;16.90;99.90;;;;;;5034853;28;20816;-78
2021/08/17 07:12:19;;;;;;;5.40;3.50;;;16.90;99.90;;;;;;5034827;28;20484;-76
2021/08/17 07:14:46;;;;;;;6.47;3.20;;;17.00;99.90;;;;;;5029756;28;20534;-76
2021/08/17 07:17:13;;;;;;;5.07;2.70;;;17.00;99.90;;;;;;5014812;28;20877;-76
2021/08/17 07:19:39;;;;;;;17.43;4.20;;;17.10;99.90;;;;;;5014624;28;20821;-76
2021/08/17 07:22:06;;;;;;;8.07;3.30;;;17.10;99.90;;;;;;5014733;28;20533;-76
2021/08/17 07:24:32;;;;;;;5.70;3.33;;;17.20;99.90;;;;;;5014798;28;20488;-77
2021/08/17 07:27:00;;;;;;;6.57;3.40;;;17.40;99.90;;;;;;5014523;28;20568;-76
2021/08/17 07:29:27;;;;;;;8.20;3.00;;;17.50;99.90;;;;;;5014663;28;20482;-76
2021/08/17 07:31:53;;;;;;;9.83;3.20;;;17.60;99.90;;;;;;5014362;28;20489;-76
2021/08/17 07:34:20;;;;;;;14.00;3.77;;;17.70;99.90;;;;;;5014363;28;20481;-76
2021/08/17 07:36:46;;;;;;;8.43;2.80;;;17.90;99.90;;;;;;5014590;28;20466;-76
2021/08/17 07:39:16;;;;;;;7.50;2.73;;;18.10;99.90;;;;;;5015613;28;20983;-76
2021/08/17 07:41:43;;;;;;;7.23;2.70;;;18.20;99.90;;;;;;5025097;28;20968;-79
2021/08/17 07:44:11;;;;;;;11.53;3.17;;;18.20;99.90;;;;;;5027022;28;20453;-78
2021/08/17 07:46:38;;;;;;;9.33;3.63;;;18.20;99.90;;;;;;5026231;28;21051;-80
2021/08/17 07:49:04;;;;;;;6.63;2.77;;;18.30;99.90;;;;;;5024769;28;20517;-77
2021/08/17 07:51:31;;;;;;;5.90;3.10;;;18.40;99.90;;;;;;5028476;28;20487;-78
2021/08/17 07:53:57;;;;;;;8.47;3.00;;;18.40;99.90;;;;;;5030568;28;20549;-78
2021/08/17 07:56:24;;;;;;;4.97;3.13;;;18.40;99.90;;;;;;5025998;28;20504;-79
2021/08/17 07:58:51;;;;;;;7.93;3.20;;;18.50;99.90;;;;;;5022524;28;20485;-77
2021/08/17 08:01:19;;;;;;;6.97;2.80;;;18.50;99.90;;;;;;5018882;28;21016;-77
2021/08/17 08:03:45;;;;;;;9.13;3.63;;;18.60;99.90;;;;;;5019400;28;21020;-81
2021/08/17 08:06:16;;;;;;;6.30;3.97;;;18.60;99.90;;;;;;5019120;28;20528;-80
2021/08/17 08:08:42;;;;;;;10.93;3.27;;;18.60;99.90;;;;;;5019249;28;20477;-75
2021/08/17 08:11:09;;;;;;;5.30;2.73;;;18.60;99.90;;;;;;5019612;28;20517;-75
2021/08/17 08:13:35;;;;;;;3.53;2.17;;;18.60;99.90;;;;;;5020957;28;21007;-75
2021/08/17 08:16:02;;;;;;;3.47;2.10;;;18.60;99.90;;;;;;5022405;28;20451;-75
2021/08/17 08:18:30;;;;;;;4.53;2.53;;;18.70;99.90;;;;;;5020887;28;20533;-75
2021/08/17 08:20:56;;;;;;;5.43;2.57;;;18.90;99.90;;;;;;5030456;28;20532;-78
2021/08/17 08:23:23;;;;;;;5.40;2.80;;;18.90;99.90;;;;;;5033415;28;20885;-77
2021/08/17 08:25:50;;;;;;;7.77;2.33;;;18.80;99.90;;;;;;5033202;28;20500;-77
2021/08/17 08:28:16;;;;;;;9.00;2.63;;;18.80;99.90;;;;;;5033170;28;20516;-77
2021/08/17 08:30:43;;;;;;;5.10;2.30;;;18.80;99.90;;;;;;5030662;28;20488;-77
2021/08/17 08:33:09;;;;;;;4.33;2.37;;;18.80;99.90;;;;;;5023062;28;20488;-77
2021/08/17 08:35:37;;;;;;;6.87;2.80;;;18.90;99.90;;;;;;5013272;28;20544;-77
2021/08/17 08:38:04;;;;;;;3.43;1.83;;;18.90;99.90;;;;;;5013430;28;20451;-76
2021/08/17 08:40:31;;;;;;;4.70;2.20;;;18.90;99.90;;;;;;5013339;28;20473;-77
2021/08/17 08:42:58;;;;;;;4.20;2.70;;;18.80;99.90;;;;;;5013304;28;20482;-77
2021/08/17 08:45:24;;;;;;;6.07;2.07;;;18.80;99.90;;;;;;5013426;28;20446;-77
2021/08/17 08:47:51;;;;;;;6.47;2.13;;;18.80;99.90;;;;;;5013215;28;20517;-76
2021/08/17 08:50:18;;;;;;;5.53;2.33;;;18.90;99.90;;;;;;5026353;28;20445;-77
2021/08/17 08:52:46;;;;;;;7.80;2.60;;;19.00;99.90;;;;;;5019757;28;20489;-77
2021/08/17 08:55:13;;;;;;;2.70;2.10;;;19.00;99.90;;;;;;5022429;28;20480;-77
2021/08/17 08:57:40;;;;;;;5.67;2.47;;;19.10;99.90;;;;;;5015384;28;21003;-76
2021/08/17 09:00:09;;;;;;;7.83;2.10;;;19.20;99.90;;;;;;5031289;28;20469;-75
2021/08/17 09:02:36;;;;;;;3.10;1.90;;;19.30;99.90;;;;;;5032386;28;20483;-75
2021/08/17 09:05:03;;;;;;;5.10;2.40;;;19.20;99.90;;;;;;5016043;28;20561;-76
2021/08/17 09:07:35;;;;;;;8.20;2.70;;;19.30;99.90;;;;;;5032126;28;20520;-76
2021/08/17 09:10:05;;;;;;;6.70;2.10;;;19.40;99.90;;;;;;5021030;28;20987;-76
2021/08/17 09:12:35;;;;;;;6.37;2.20;;;19.40;99.90;;;;;;5028209;28;20453;-76
2021/08/17 09:15:07;;;;;;;3.10;2.10;;;19.40;99.90;;;;;;5030918;28;20480;-76
2021/08/17 09:17:34;;;;;;;5.67;2.60;;;19.20;99.90;;;;;;5028569;28;20489;-76
2021/08/17 09:20:01;;;;;;;16.43;12.27;;;19.10;99.90;;;;;;5027781;28;20538;-76
2021/08/17 09:22:31;;;;;;;4.27;3.70;;;19.10;99.90;;;;;;5020983;28;20532;-76
2021/08/17 09:24:59;;;;;;;4.67;2.27;;;19.20;99.90;;;;;;5032622;28;20522;-76
2021/08/17 09:27:29;;;;;;;4.87;2.77;;;19.30;99.90;;;;;;5023280;28;20540;-76
2021/08/17 09:30:01;;;;;;;4.90;2.17;;;19.40;99.90;;;;;;5036663;28;20481;-76
2021/08/17 09:32:28;;;;;;;6.10;2.40;;;19.50;99.90;;;;;;5020879;28;20541;-76
2021/08/17 09:34:56;;;;;;;9.87;3.00;;;19.40;99.90;;;;;;5032289;28;20480;-76
2021/08/17 09:37:27;;;;;;;6.00;2.30;;;19.50;99.90;;;;;;5019689;28;20459;-76
2021/08/17 09:39:55;;;;;;;6.60;2.10;;;19.60;99.90;;;;;;5019448;28;20941;-76
2021/08/17 09:42:24;;;;;;;8.17;3.73;;;19.60;99.90;;;;;;5030281;28;20453;-76
2021/08/17 09:45:16;;;;;;;5.83;3.13;;;19.70;99.90;;;;;;5019455;28;20544;-76
2021/08/17 09:47:45;;;;;;;4.93;3.07;;;20.00;99.90;;;;;;5026588;28;20497;-80
2021/08/17 09:50:26;;;;;;;6.60;2.53;;;20.20;99.90;;;;;;5028624;28;20492;-75
2021/08/17 09:53:07;;;;;;;4.77;2.40;;;20.20;99.90;;;;;;5019236;28;20810;-75
2021/08/17 09:55:44;;;;;;;6.50;2.60;;;20.20;99.90;;;;;;5027970;28;20442;-75
2021/08/17 09:58:19;;;;;;;3.07;2.43;;;20.20;99.90;;;;;;5028419;28;20970;-75
2021/08/17 10:00:48;;;;;;;6.03;2.53;;;20.10;99.90;;;;;;5019303;28;20441;-75
2021/08/17 10:03:15;;;;;;;8.27;2.90;;;20.10;99.90;;;;;;5030604;28;20473;-75
2021/08/17 10:05:42;;;;;;;6.10;2.40;;;20.00;99.90;;;;;;5024596;28;20457;-75
2021/08/17 10:08:11;;;;;;;4.60;2.30;;;20.00;99.90;;;;;;5021587;28;20520;-75
2021/08/17 10:10:38;;;;;;;7.13;3.00;;;19.90;99.90;;;;;;5030519;28;20453;-75
2021/08/17 10:13:05;;;;;;;8.07;2.90;;;19.90;99.90;;;;;;5017869;28;20536;-75
2021/08/17 10:15:31;;;;;;;7.90;2.80;;;19.90;99.90;;;;;;5030836;28;20907;-77
2021/08/17 10:18:00;;;;;;;5.93;2.90;;;19.90;99.90;;;;;;5023203;28;20485;-75
2021/08/17 10:20:28;;;;;;;4.97;2.50;;;19.90;99.90;;;;;;5028925;28;20536;-75
2021/08/17 10:22:55;;;;;;;4.03;1.97;;;20.00;99.90;;;;;;5016689;28;20534;-75
2021/08/17 10:25:24;;;;;;;8.30;2.80;;;20.00;99.90;;;;;;5027753;28;20529;-75
2021/08/17 10:27:51;;;;;;;9.67;2.10;;;20.30;99.90;;;;;;5024191;28;20507;-75
2021/08/17 10:30:20;;;;;;;9.70;2.30;;;20.50;99.90;;;;;;5034117;28;20481;-75
2021/08/17 10:32:53;;;;;;;7.97;2.30;;;20.80;99.90;;;;;;5017374;28;20540;-75
2021/08/17 10:35:54;;;;;;;3.97;2.17;;;21.00;99.90;;;;;;5027936;28;20981;-75
2021/08/17 10:38:48;;;;;;;5.77;2.70;;;21.10;99.90;;;;;;5028449;28;20442;-75
2021/08/17 10:41:24;;;;;;;6.20;2.23;;;21.30;99.90;;;;;;5019101;28;20855;-75
2021/08/17 10:44:14;;;;;;;10.67;2.53;;;21.30;99.90;;;;;;5033559;28;20531;-75
2021/08/17 10:46:46;;;;;;;7.33;2.47;;;21.70;99.90;;;;;;5017141;28;20505;-75
2021/08/17 10:49:50;;;;;;;8.13;2.07;;;21.80;99.90;;;;;;5024990;28;20565;-77
2021/08/17 10:52:30;;;;;;;5.20;1.67;;;21.90;99.90;;;;;;5023982;28;20902;-77
2021/08/17 10:55:45;;;;;;;8.73;2.40;;;21.80;99.90;;;;;;5023001;28;20476;-77
2021/08/17 10:58:12;;;;;;;5.40;2.33;;;21.80;99.90;;;;;;4964211;28;20912;-76
2021/08/17 11:00:46;;;;;;;3.40;1.60;;;21.50;99.90;;;;;;5009020;28;20480;-76
2021/08/17 11:03:14;;;;;;;5.43;2.07;;;21.40;99.90;;;;;;5022653;28;20473;-76
2021/08/17 11:08:37;;;;;;;5.33;1.60;;;21.20;99.90;;;;;;5151435;27;21097;-73
2021/08/17 11:11:16;;;;;;;3.70;1.50;;;20.60;99.90;;;;;;5134452;27;20523;-73
2021/08/17 11:14:00;;;;;;;4.53;1.70;;;20.40;99.90;;;;;;5141997;27;20456;-73
2021/08/17 11:16:27;;;;;;;5.83;2.30;;;20.50;99.90;;;;;;5149954;27;20522;-73
2021/08/17 11:18:55;;;;;;;3.73;2.03;;;20.60;99.90;;;;;;5134210;27;20860;-73
2021/08/17 11:21:32;;;;;;;4.20;1.83;;;21.00;99.90;;;;;;5144833;27;20437;-73
2021/08/17 11:24:15;;;;;;;3.67;1.60;;;21.00;99.90;;;;;;5138507;27;20491;-73
2021/08/17 11:26:44;;;;;;;3.50;2.10;;;21.00;99.90;;;;;;5141124;27;20805;-74
2021/08/17 11:29:16;;;;;;;10.13;2.73;;;21.10;99.90;;;;;;5146202;27;20502;-74
2021/08/17 11:31:46;;;;;;;7.23;1.97;;;21.10;99.90;;;;;;5139733;27;20481;-74
2021/08/17 11:34:15;;;;;;;3.60;1.93;;;20.90;99.90;;;;;;5137391;27;20525;-74
2021/08/17 11:36:42;;;;;;;7.33;2.50;;;20.80;99.90;;;;;;5147542;27;20531;-73
2021/08/17 11:39:21;;;;;;;6.27;1.80;;;20.50;99.90;;;;;;5134911;27;20474;-74
2021/08/17 11:41:48;;;;;;;3.83;2.00;;;19.80;99.90;;;;;;5140826;27;20437;-73
2021/08/17 11:44:18;;;;;;;3.77;2.27;;;19.20;99.90;;;;;;5143868;27;20519;-73
2021/08/17 11:46:45;;;;;;;5.23;2.20;;;18.70;99.90;;;;;;5145696;27;20516;-76
2021/08/17 11:49:22;;;;;;;5.00;2.20;;;18.40;99.90;;;;;;5134894;27;20973;-76
2021/08/17 11:51:58;;;;;;;4.97;2.43;;;18.30;99.90;;;;;;5140455;27;20448;-76
2021/08/17 11:54:26;;;;;;;5.10;2.50;;;18.40;99.90;;;;;;5145419;27;20492;-76
2021/08/17 11:56:57;;;;;;;8.87;3.07;;;18.70;99.90;;;;;;5133386;27;20489;-76
2021/08/17 11:59:25;;;;;;;7.03;2.47;;;19.00;99.90;;;;;;5143934;27;20445;-76
2021/08/17 12:01:59;;;;;;;6.67;2.47;;;19.40;99.90;;;;;;5140303;27;20480;-76
2021/08/17 12:04:26;;;;;;;5.10;2.73;;;19.70;99.90;;;;;;5131970;27;20541;-76
2021/08/17 12:07:09;;;;;;;8.70;2.60;;;20.00;99.90;;;;;;5146577;27;21400;-76
2021/08/17 12:09:39;;;;;;;4.87;2.33;;;20.40;99.90;;;;;;5135592;27;20472;-76
2021/08/17 12:12:07;;;;;;;3.93;2.60;;;20.70;99.90;;;;;;5143251;27;20475;-76
2021/08/17 12:14:34;;;;;;;3.30;2.40;;;21.00;99.90;;;;;;5136525;27;20475;-77
2021/08/17 12:17:01;;;;;;;4.97;1.90;;;21.30;99.90;;;;;;5133316;27;20479;-76
2021/08/17 12:19:27;;;;;;;8.97;3.00;;;21.60;99.90;;;;;;5129673;27;21013;-77
2021/08/17 12:21:54;;;;;;;6.23;2.70;;;21.70;99.90;;;;;;5127992;27;21066;-77
2021/08/17 12:24:22;;;;;;;7.03;3.33;;;21.70;99.90;;;;;;5126441;27;20524;-77
2021/08/17 12:26:58;;;;;;;2.80;1.97;;;21.70;99.90;;;;;;5120656;27;20499;-76
2021/08/17 12:29:25;;;;;;;5.57;2.30;;;21.80;99.90;;;;;;5129337;27;20818;-76
2021/08/17 12:31:53;;;;;;;7.37;2.80;;;21.80;99.90;;;;;;5126253;27;20453;-77
2021/08/17 12:34:21;;;;;;;5.93;2.97;;;21.70;99.90;;;;;;5121235;27;20456;-76
2021/08/17 12:36:49;;;;;;;9.37;2.73;;;21.60;99.90;;;;;;5132611;27;20436;-77
2021/08/17 12:39:20;;;;;;;2.87;2.30;;;21.50;99.90;;;;;;5121102;27;20437;-76
2021/08/17 12:41:48;;;;;;;2.63;1.93;;;21.40;99.90;;;;;;5126111;27;20449;-77
2021/08/17 12:44:19;;;;;;;5.83;2.57;;;21.30;99.90;;;;;;5129145;27;20444;-76
2021/08/17 12:46:59;;;;;;;5.43;2.37;;;21.20;99.90;;;;;;5121103;27;20563;-76
2021/08/17 12:49:37;;;;;;;2.87;2.43;;;21.20;99.90;;;;;;5128053;27;20534;-76
2021/08/17 12:52:28;;;;;;;9.43;2.67;;;21.40;99.90;;;;;;5123102;27;20947;-76
2021/08/17 12:54:56;;;;;;;3.80;2.30;;;21.60;99.90;;;;;;5124874;27;20437;-78